Time;durP1;ratioP1;P1;durP2;ratioP2;P2;SDS_P1;SDS_P2;PMS_P1;PMS_P2;Temp;Humidity;BMP_temperature;BMP_pressure;BME280_temperature;BME280_humidity;BME280_pressure;Samples;Min_cycle;Max_cycle;Signal;HPM_P1;HPM_P2
2023/06/19 00:02:44;;;;;;;4.72;3.45;;;;;;;21.83;67.39;99997.78;10176222;28;96949;-81
2023/06/19 00:07:47;;;;;;;3.97;3.05;;;;;;;21.74;67.23;99989.75;10175670;28;96597;-81
2023/06/19 00:12:50;;;;;;;5.97;3.50;;;;;;;21.66;67.58;99998.44;10176141;28;96603;-81
2023/06/19 00:17:55;;;;;;;5.50;3.45;;;;;;;21.59;67.76;99983.91;10176332;28;96723;-81
2023/06/19 00:22:58;;;;;;;5.05;3.92;;;;;;;21.49;68.06;99983.03;10175465;28;97078;-81
2023/06/19 00:28:02;;;;;;;5.65;3.50;;;;;;;21.49;68.28;99972.34;10176434;28;97000;-81
2023/06/19 00:33:06;;;;;;;6.22;3.20;;;;;;;21.52;68.35;99981.94;10174854;28;96716;-81
2023/06/19 00:38:10;;;;;;;6.20;3.60;;;;;;;21.44;68.62;99994.19;10174807;28;96742;-81
2023/06/19 00:43:13;;;;;;;5.93;3.30;;;;;;;21.31;69.21;99982.84;10172719;28;96682;-81
2023/06/19 00:48:18;;;;;;;5.97;3.15;;;;;;;21.39;68.99;99979.50;10175630;28;96555;-81
2023/06/19 00:53:23;;;;;;;6.00;3.55;;;;;;;21.44;68.99;99970.06;10174651;28;96694;-81
2023/06/19 00:58:27;;;;;;;4.65;3.40;;;;;;;21.40;69.23;99965.09;10174446;28;96745;-81
2023/06/19 01:03:31;;;;;;;4.88;3.55;;;;;;;21.40;69.33;99962.44;10174262;28;96926;-81
2023/06/19 01:08:44;;;;;;;4.93;3.67;;;;;;;21.51;69.17;99954.31;10172680;28;97086;-81
2023/06/19 01:13:53;;;;;;;5.82;3.83;;;;;;;21.43;69.22;99951.47;10174075;28;96580;-81
2023/06/19 01:18:59;;;;;;;5.78;3.45;;;;;;;21.62;68.96;99953.34;10174600;28;96714;-81
2023/06/19 01:24:04;;;;;;;7.43;3.75;;;;;;;21.60;69.10;99937.41;10194573;28;96688;-81
2023/06/19 01:29:07;;;;;;;5.47;3.63;;;;;;;21.73;68.57;99932.63;10214095;28;96717;-81
2023/06/19 01:34:13;;;;;;;5.53;3.63;;;;;;;21.52;69.68;99929.22;10197102;28;96923;-81
2023/06/19 01:39:20;;;;;;;6.90;3.47;;;;;;;21.47;69.94;99918.94;10174242;28;96905;-81
2023/06/19 01:44:23;;;;;;;5.03;3.22;;;;;;;21.30;70.19;99921.41;10173069;28;96696;-81
2023/06/19 01:49:26;;;;;;;5.40;3.60;;;;;;;21.31;69.94;99915.09;10173159;28;96682;-81
2023/06/19 01:54:31;;;;;;;6.57;4.20;;;;;;;21.38;69.80;99906.34;10172224;28;96750;-81
2023/06/19 01:59:34;;;;;;;6.88;4.00;;;;;;;21.35;69.93;99911.13;10173027;28;96737;-81
2023/06/19 02:04:38;;;;;;;7.68;3.97;;;;;;;21.30;70.40;99892.81;10171908;28;96653;-81
2023/06/19 02:09:42;;;;;;;5.05;3.42;;;;;;;21.45;69.83;99888.75;10173323;28;96638;-81
2023/06/19 02:14:46;;;;;;;5.70;3.90;;;;;;;21.53;69.81;99888.06;10172731;28;96576;-81
2023/06/19 02:19:49;;;;;;;4.68;3.58;;;;;;;21.43;70.00;99873.84;10172030;28;96850;-82
2023/06/19 02:24:54;;;;;;;7.13;3.93;;;;;;;21.37;70.39;99869.88;10170899;28;96657;-81
2023/06/19 02:29:57;;;;;;;5.97;4.00;;;;;;;21.31;70.78;99869.59;10172091;28;96738;-82
2023/06/19 02:35:01;;;;;;;5.57;3.73;;;;;;;21.49;70.42;99865.25;10170781;28;96718;-82
2023/06/19 02:40:09;;;;;;;5.85;3.85;;;;;;;21.49;70.59;99855.38;10170962;28;96714;-81
2023/06/19 02:45:12;;;;;;;7.55;3.75;;;;;;;21.55;70.48;99845.09;10171220;28;96720;-82
2023/06/19 02:50:15;;;;;;;6.13;3.63;;;;;;;21.15;71.51;99846.00;10171220;28;97819;-82
2023/06/19 02:55:20;;;;;;;4.90;3.73;;;;;;;21.00;72.30;99851.88;10171297;28;96548;-82
2023/06/19 03:00:23;;;;;;;6.15;4.18;;;;;;;21.00;72.47;99836.63;10171582;28;96739;-82
2023/06/19 03:05:28;;;;;;;5.07;3.60;;;;;;;20.99;72.30;99834.09;10173131;28;96982;-82
2023/06/19 03:10:33;;;;;;;6.00;3.80;;;;;;;21.01;72.59;99818.75;10178030;28;96642;-82
2023/06/19 03:15:36;;;;;;;7.10;4.13;;;;;;;21.11;72.32;99811.59;10176660;28;96916;-82
2023/06/19 03:20:39;;;;;;;5.72;3.63;;;;;;;21.00;72.63;99806.38;10178184;28;96582;-82
2023/06/19 03:25:44;;;;;;;5.00;3.53;;;;;;;20.96;72.79;99803.13;10177156;28;96756;-81
2023/06/19 03:30:47;;;;;;;6.32;4.05;;;;;;;20.98;73.01;99786.94;10177554;28;96964;-82
2023/06/19 03:35:51;;;;;;;5.07;3.58;;;;;;;21.08;72.54;99791.34;10176517;28;96792;-81
2023/06/19 03:40:55;;;;;;;6.07;4.18;;;;;;;20.95;72.44;99789.88;10177431;28;96716;-81
2023/06/19 03:45:59;;;;;;;6.38;4.05;;;;;;;20.75;73.12;99764.06;10176840;28;96540;-82
2023/06/19 03:51:03;;;;;;;5.78;3.75;;;;;;;20.78;72.88;99771.81;10177575;28;96978;-82
2023/06/19 03:56:08;;;;;;;5.45;3.60;;;;;;;20.69;73.02;99764.63;10177069;28;96780;-82
2023/06/19 04:01:11;;;;;;;5.80;3.75;;;;;;;20.67;73.11;99775.44;10176395;28;96665;-81
2023/06/19 04:06:14;;;;;;;5.85;3.78;;;;;;;20.79;72.69;99781.53;10174829;28;96830;-82
2023/06/19 04:11:20;;;;;;;6.45;4.15;;;;;;;20.91;72.26;99780.44;10174482;28;96759;-81
2023/06/19 04:16:23;;;;;;;8.05;4.15;;;;;;;20.86;72.26;99790.72;10214843;28;96664;-82
2023/06/19 04:21:27;;;;;;;5.97;3.33;;;;;;;20.71;72.90;99792.91;10215712;28;96679;-81
2023/06/19 04:26:31;;;;;;;6.68;4.05;;;;;;;20.83;72.84;99786.47;10215086;28;96987;-81
2023/06/19 04:31:40;;;;;;;7.35;3.95;;;;;;;20.88;72.70;99778.06;10214489;28;97260;-81
2023/06/19 04:36:45;;;;;;;5.50;3.83;;;;;;;20.70;73.56;99785.88;10179537;28;97712;-81
2023/06/19 04:41:49;;;;;;;5.55;3.70;;;;;;;20.72;73.27;99783.94;10176038;28;96769;-81
2023/06/19 04:47:00;;;;;;;7.30;3.60;;;;;;;20.63;73.72;99787.41;10175312;28;96747;-81
2023/06/19 04:52:04;;;;;;;7.18;4.50;;;;;;;20.71;73.68;99786.72;10174677;28;96717;-81
2023/06/19 04:57:10;;;;;;;6.03;3.83;;;;;;;20.59;74.05;99785.97;10174053;28;96806;-81
2023/06/19 05:02:13;;;;;;;4.78;3.60;;;;;;;20.52;74.51;99783.97;10174587;28;96660;-81
2023/06/19 05:07:17;;;;;;;7.13;4.13;;;;;;;20.65;73.98;99776.56;10174743;28;97047;-81
2023/06/19 05:12:22;;;;;;;8.27;4.35;;;;;;;20.68;73.87;99773.63;10174267;28;96742;-81
2023/06/19 05:17:26;;;;;;;5.82;3.45;;;;;;;20.52;74.70;99771.44;10174229;28;97232;-81
2023/06/19 05:22:31;;;;;;;6.05;3.92;;;;;;;20.44;75.08;99773.97;10174132;28;96728;-81
2023/06/19 05:27:36;;;;;;;5.85;4.18;;;;;;;20.39;75.13;99776.19;10172948;28;96624;-81
2023/06/19 05:32:39;;;;;;;6.05;4.30;;;;;;;20.33;75.66;99772.22;10174039;28;96611;-81
2023/06/19 05:38:00;;;;;;;6.15;4.40;;;;;;;20.42;75.06;99759.88;10173466;28;96748;-82
2023/06/19 05:43:05;;;;;;;5.97;4.25;;;;;;;20.44;75.08;99767.75;10173330;28;97223;-81
2023/06/19 05:48:08;;;;;;;7.45;4.53;;;;;;;20.39;76.06;99758.31;10172336;28;97751;-81
2023/06/19 05:53:11;;;;;;;6.05;4.18;;;;;;;20.61;75.20;99762.63;10173063;28;97235;-81
2023/06/19 05:58:21;;;;;;;6.47;4.25;;;;;;;20.79;74.89;99758.31;10173280;28;96803;-81
2023/06/19 06:03:25;;;;;;;7.35;4.28;;;;;;;21.03;74.03;99744.56;10172877;28;96809;-82
2023/06/19 06:08:28;;;;;;;5.53;3.23;;;;;;;21.10;73.83;99749.19;10172239;28;96723;-81
2023/06/19 06:13:33;;;;;;;5.97;3.70;;;;;;;21.13;73.71;99750.78;10172884;28;96747;-82
2023/06/19 06:18:36;;;;;;;5.50;3.63;;;;;;;21.20;73.67;99742.09;10172222;28;96759;-81
2023/06/19 06:23:44;;;;;;;6.72;3.50;;;;;;;21.22;73.33;99741.94;10172702;28;96605;-82
2023/06/19 06:28:48;;;;;;;5.40;3.78;;;;;;;21.27;72.97;99742.38;10172499;28;96645;-81
2023/06/19 06:33:53;;;;;;;4.63;3.40;;;;;;;21.27;72.92;99753.06;10171297;28;97073;-81
2023/06/19 06:38:56;;;;;;;6.43;3.70;;;;;;;21.26;72.77;99751.38;10169906;28;96639;-81
2023/06/19 06:44:02;;;;;;;5.68;3.65;;;;;;;21.44;72.49;99755.03;10171124;28;96667;-81
2023/06/19 06:49:06;;;;;;;4.78;3.53;;;;;;;21.69;71.68;99749.13;10171781;28;96772;-82
2023/06/19 06:54:10;;;;;;;4.38;3.08;;;;;;;21.88;71.64;99770.53;10171211;28;96829;-81
2023/06/19 06:59:16;;;;;;;5.80;3.40;;;;;;;21.74;72.09;99765.59;10171090;28;96743;-82
2023/06/19 07:04:19;;;;;;;5.70;3.45;;;;;;;21.74;72.01;99762.06;10171285;28;96770;-81
2023/06/19 07:09:22;;;;;;;5.55;3.67;;;;;;;21.70;71.97;99756.16;10169462;28;96677;-82
2023/06/19 07:14:27;;;;;;;4.78;3.58;;;;;;;21.70;72.08;99769.53;10171369;28;96660;-81
2023/06/19 07:19:30;;;;;;;6.32;3.88;;;;;;;22.05;71.12;99772.50;10178762;28;96898;-81
2023/06/19 07:24:34;;;;;;;5.27;3.60;;;;;;;22.34;70.55;99773.25;10210342;28;96683;-81
2023/06/19 07:29:39;;;;;;;5.03;3.47;;;;;;;22.64;69.51;99767.59;10209780;28;96639;-82
2023/06/19 07:34:42;;;;;;;5.72;3.90;;;;;;;22.67;69.57;99768.28;10190896;28;97866;-81
2023/06/19 07:39:46;;;;;;;3.93;2.97;;;;;;;22.58;69.98;99780.75;10170319;28;97291;-81
2023/06/19 07:44:50;;;;;;;5.40;3.97;;;;;;;22.51;69.96;99769.78;10169839;28;96779;-81
2023/06/19 07:49:54;;;;;;;6.88;4.10;;;;;;;22.80;69.23;99775.03;10170110;28;96748;-82
2023/06/19 07:54:58;;;;;;;6.17;3.83;;;;;;;22.83;68.79;99769.38;10177112;28;96627;-81
2023/06/19 08:00:08;;;;;;;5.15;3.60;;;;;;;22.72;67.82;99766.88;10176551;28;96711;-82
2023/06/19 08:05:12;;;;;;;5.50;3.83;;;;;;;22.94;67.30;99760.28;10193517;22;98269;-82
2023/06/19 08:10:15;;;;;;;4.83;3.30;;;;;;;23.31;65.93;99761.00;10208911;28;96920;-81
2023/06/19 08:15:20;;;;;;;5.70;4.00;;;;;;;23.60;65.40;99762.50;10175694;28;96736;-82
2023/06/19 08:20:24;;;;;;;4.65;3.63;;;;;;;23.66;64.71;99761.88;10174784;28;96704;-81
2023/06/19 08:25:28;;;;;;;5.38;3.33;;;;;;;23.73;63.84;99765.59;10175765;28;96676;-81
2023/06/19 08:30:33;;;;;;;4.30;3.17;;;;;;;24.16;62.94;99759.38;10176852;28;96790;-81
2023/06/19 08:35:36;;;;;;;4.80;3.35;;;;;;;24.23;62.76;99752.38;10175027;28;96829;-82
2023/06/19 08:40:39;;;;;;;6.03;3.80;;;;;;;24.52;62.42;99746.66;10174879;28;96761;-81
2023/06/19 08:45:53;;;;;;;5.55;3.78;;;;;;;24.53;61.72;99741.13;10175589;28;97328;-81
2023/06/19 08:50:57;;;;;;;4.77;3.67;;;;;;;24.63;61.48;99731.09;10175396;28;96815;-81
2023/06/19 08:56:01;;;;;;;5.65;3.28;;;;;;;25.20;59.86;99726.72;10175603;28;96600;-81
2023/06/19 09:01:08;;;;;;;4.53;3.03;;;;;;;24.83;59.76;99739.72;10175196;28;98150;-81
2023/06/19 09:06:12;;;;;;;5.07;3.20;;;;;;;25.10;59.28;99735.97;10173198;28;97133;-81
2023/06/19 09:11:20;;;;;;;5.47;3.50;;;;;;;25.35;58.65;99740.38;10173224;28;96776;-81
2023/06/19 09:27:44;;;;;;;4.68;3.50;;;;;;;25.96;57.97;99743.44;10416969;27;96871;-81
2023/06/19 09:32:48;;;;;;;6.03;3.15;;;;;;;25.81;58.40;99734.38;10367062;28;98002;-81
2023/06/19 09:37:53;;;;;;;4.35;3.15;;;;;;;26.24;57.20;99722.31;10374169;28;96677;-81
2023/06/19 09:42:59;;;;;;;4.90;3.30;;;;;;;26.23;56.06;99717.94;10374132;28;96800;-81
2023/06/19 09:48:03;;;;;;;5.03;3.20;;;;;;;26.00;56.07;99723.22;10366467;28;96792;-81
2023/06/19 09:53:07;;;;;;;4.75;3.33;;;;;;;25.90;56.34;99719.84;10373042;28;96715;-81
2023/06/19 09:58:12;;;;;;;3.92;2.55;;;;;;;26.43;53.94;99727.34;10372719;28;96770;-81
2023/06/19 10:03:16;;;;;;;4.47;2.70;;;;;;;26.72;52.41;99716.75;10373407;28;96640;-81
2023/06/19 10:08:30;;;;;;;3.25;2.67;;;;;;;26.88;52.25;99713.97;10356482;28;97084;-81
2023/06/19 10:13:38;;;;;;;3.30;2.35;;;;;;;26.94;51.30;99706.00;10373163;28;96754;-81
2023/06/19 10:18:46;;;;;;;4.20;2.22;;;;;;;26.90;51.91;99707.34;10372483;28;96976;-81
2023/06/19 10:23:57;;;;;;;4.32;2.42;;;;;;;27.00;52.05;99716.09;10355292;28;96841;-81
2023/06/19 10:29:04;;;;;;;5.25;3.67;;;;;;;26.94;51.85;99734.84;10344934;28;96617;-81
2023/06/19 10:34:08;;;;;;;5.45;3.33;;;;;;;26.52;51.95;99716.34;10344882;28;97229;-81
2023/06/19 10:39:12;;;;;;;5.13;3.40;;;;;;;26.76;52.28;99712.69;10344750;28;97072;-81
2023/06/19 10:44:16;;;;;;;3.28;2.45;;;;;;;26.72;51.44;99714.91;10360764;28;96642;-81
2023/06/19 10:49:20;;;;;;;3.10;2.40;;;;;;;26.69;51.08;99707.16;10385771;28;96861;-81
2023/06/19 10:54:23;;;;;;;3.28;2.28;;;;;;;26.24;50.01;99692.63;10385479;28;96805;-81
2023/06/19 10:59:28;;;;;;;;;;;;;;;27.03;48.56;99698.72;10384772;28;97329;-81
2023/06/19 11:04:31;;;;;;;2.75;2.00;;;;;;;27.33;49.45;99687.03;10385230;28;97074;-81
2023/06/19 11:09:35;;;;;;;3.38;2.30;;;;;;;27.19;49.47;99687.81;10385078;28;96619;-81
2023/06/19 11:14:41;;;;;;;4.22;2.45;;;;;;;27.45;48.77;99692.84;10384079;28;96752;-81
2023/06/19 11:19:45;;;;;;;3.35;2.15;;;;;;;27.37;49.10;99688.34;10385038;28;96569;-81
2023/06/19 11:24:48;;;;;;;;;;;;;;;27.21;48.19;99696.59;10384528;28;96744;-81
2023/06/19 11:29:58;;;;;;;3.73;2.50;;;;;;;27.50;48.23;99693.97;10383975;28;96748;-81
2023/06/19 11:35:07;;;;;;;3.50;2.55;;;;;;;27.66;48.58;99688.44;10383991;28;97026;-81
2023/06/19 11:40:15;;;;;;;3.60;2.47;;;;;;;27.04;49.13;99691.47;10382969;28;96602;-81
2023/06/19 11:45:20;;;;;;;3.25;2.40;;;;;;;26.96;50.49;99686.91;10383848;28;96654;-81
2023/06/19 11:50:28;;;;;;;3.75;2.53;;;;;;;26.51;50.92;99687.66;10382660;28;96682;-81
2023/06/19 11:55:31;;;;;;;3.88;2.83;;;;;;;26.56;51.77;99703.31;10383158;28;97609;-81
2023/06/19 12:00:37;;;;;;;3.80;2.50;;;;;;;26.32;52.02;99695.28;10383461;28;96755;-80
2023/06/19 12:05:41;;;;;;;4.18;2.60;;;;;;;26.48;52.71;99688.03;10382411;28;96737;-81
2023/06/19 12:10:44;;;;;;;3.90;2.58;;;;;;;26.70;52.27;99697.19;10383099;28;96627;-80
2023/06/19 12:15:49;;;;;;;4.28;2.78;;;;;;;27.01;52.09;99684.50;10382896;28;96681;-81
2023/06/19 12:20:54;;;;;;;4.65;2.88;;;;;;;26.73;51.72;99675.25;10382006;28;97679;-80
2023/06/19 12:25:58;;;;;;;4.53;3.08;;;;;;;26.61;53.21;99677.50;10381910;28;96773;-81
2023/06/19 12:31:04;;;;;;;4.28;3.03;;;;;;;26.02;53.47;99669.97;10382490;28;96679;-81
2023/06/19 12:36:07;;;;;;;5.40;3.40;;;;;;;25.40;55.06;99668.81;10381894;28;96666;-81
2023/06/19 12:41:11;;;;;;;4.22;2.90;;;;;;;25.24;55.62;99668.00;10381691;28;97077;-81
2023/06/19 12:46:16;;;;;;;5.18;3.08;;;;;;;24.99;56.74;99671.63;10381491;28;96788;-81
2023/06/19 12:51:19;;;;;;;5.28;3.60;;;;;;;24.47;59.12;99685.28;10381627;28;96626;-81
2023/06/19 13:10:22;;;;;;;5.85;4.40;;;;;;;23.83;67.47;99713.63;10292820;28;96611;-83
2023/06/19 13:15:27;;;;;;;6.40;4.10;;;;;;;24.07;66.44;99720.00;10242995;28;97329;-82
2023/06/19 13:20:31;;;;;;;6.30;4.05;;;;;;;24.09;67.04;99722.53;10235810;28;96535;-82
2023/06/19 13:25:37;;;;;;;5.88;4.30;;;;;;;24.08;67.20;99727.06;10251066;28;96862;-82
2023/06/19 13:30:41;;;;;;;6.90;4.72;;;;;;;23.97;67.86;99743.47;10240475;28;97013;-83
2023/06/19 13:35:44;;;;;;;6.83;4.40;;;;;;;23.94;67.92;99733.03;10210371;28;96775;-83
2023/06/19 13:40:49;;;;;;;6.67;4.63;;;;;;;;;;10210503;28;96726;-83
2023/06/19 13:45:54;;;;;;;5.85;4.32;;;;;;;24.03;68.93;99723.19;10210477;28;96610;-83
2023/06/19 13:51:02;;;;;;;9.90;4.95;;;;;;;24.19;68.00;99717.88;10210550;28;96801;-82
2023/06/19 13:56:08;;;;;;;6.38;4.07;;;;;;;24.74;66.79;99711.94;10227611;28;96655;-82
2023/06/19 14:01:12;;;;;;;5.35;3.97;;;;;;;25.40;65.68;99700.28;10250093;28;96685;-82
2023/06/19 14:06:17;;;;;;;6.57;4.43;;;;;;;25.41;65.36;99694.75;10248669;28;96806;-82
2023/06/19 14:11:22;;;;;;;6.60;4.57;;;;;;;25.80;64.57;99703.00;10222341;28;96654;-81
2023/06/19 14:16:27;;;;;;;6.18;4.60;;;;;;;25.54;64.45;99697.78;10223222;28;96969;-82
2023/06/19 14:21:32;;;;;;;8.95;5.13;;;;;;;25.71;64.05;99717.53;10221280;28;96678;-82
2023/06/19 14:26:38;;;;;;;6.45;4.32;;;;;;;25.99;62.98;99702.63;10222562;28;96721;-82
2023/06/19 14:31:42;;;;;;;6.28;4.65;;;;;;;25.95;63.46;99700.47;10222313;28;96639;-82
2023/06/19 14:36:47;;;;;;;6.75;4.63;;;;;;;25.56;63.53;99695.75;10221642;28;96891;-82
2023/06/19 14:41:53;;;;;;;5.57;4.13;;;;;;;25.89;62.63;99688.50;10220740;28;96694;-82
2023/06/19 14:46:58;;;;;;;7.57;4.90;;;;;;;26.08;61.49;99692.66;10221973;28;96700;-82
2023/06/19 14:52:02;;;;;;;5.68;4.30;;;;;;;26.26;61.33;99694.16;10221634;28;97871;-81
2023/06/19 14:57:10;;;;;;;6.07;4.60;;;;;;;25.92;61.48;99687.34;10220501;28;96822;-81
2023/06/19 15:02:14;;;;;;;6.38;4.35;;;;;;;25.94;61.49;99686.13;10221559;28;96681;-81
2023/06/19 15:07:19;;;;;;;5.97;4.20;;;;;;;25.69;60.95;99676.41;10220692;28;96793;-81
2023/06/19 15:12:24;;;;;;;7.45;4.18;;;;;;;25.39;61.45;99682.47;10220693;28;97009;-82
2023/06/19 15:17:28;;;;;;;6.57;4.28;;;;;;;25.70;61.23;99689.72;10220736;28;96767;-81
2023/06/19 15:22:31;;;;;;;5.13;3.80;;;;;;;25.63;61.31;99683.28;10219804;28;96783;-81
2023/06/19 15:27:36;;;;;;;5.85;4.05;;;;;;;25.58;60.96;99682.97;10220560;28;96627;-81
2023/06/19 15:32:41;;;;;;;6.65;4.38;;;;;;;25.08;62.20;99692.19;10219382;28;96774;-81
2023/06/19 15:37:44;;;;;;;5.43;3.65;;;;;;;24.73;62.76;99682.50;10219764;28;96503;-81
2023/06/19 15:42:50;;;;;;;6.15;4.45;;;;;;;24.24;62.90;99681.44;10220018;28;96782;-81
2023/06/19 15:47:53;;;;;;;5.60;4.05;;;;;;;24.15;63.58;99706.59;10219626;28;96894;-81
2023/06/19 15:52:56;;;;;;;6.63;4.43;;;;;;;24.01;63.56;99709.91;10219663;28;97322;-81
2023/06/19 15:58:03;;;;;;;6.13;4.40;;;;;;;23.90;64.35;99707.47;10219431;28;97142;-84
2023/06/19 16:03:07;;;;;;;6.53;4.47;;;;;;;24.03;65.44;99699.81;10218235;28;96913;-83
2023/06/19 16:08:14;;;;;;;5.78;4.22;;;;;;;24.14;65.61;99696.84;10218851;28;96851;-83
2023/06/19 16:13:21;;;;;;;5.85;4.18;;;;;;;24.13;66.16;99700.56;10219264;28;97122;-84
2023/06/19 16:18:26;;;;;;;6.95;4.45;;;;;;;24.10;66.89;99703.53;10218454;28;96617;-83
2023/06/19 16:23:34;;;;;;;6.57;4.25;;;;;;;24.06;67.13;99701.34;10218001;28;96784;-83
2023/06/19 16:28:41;;;;;;;7.43;4.43;;;;;;;23.99;66.71;99689.53;10218272;28;96801;-82
2023/06/19 16:33:46;;;;;;;5.90;3.85;;;;;;;24.06;65.72;99698.66;10218081;28;96640;-82
2023/06/19 16:38:51;;;;;;;5.43;3.78;;;;;;;24.03;65.95;99691.75;10198879;28;96925;-82
2023/06/19 16:43:58;;;;;;;5.57;3.78;;;;;;;24.07;66.23;99687.75;10178302;28;96633;-82
2023/06/19 16:49:01;;;;;;;5.85;3.88;;;;;;;;;;10178398;28;96640;-82
2023/06/19 16:54:06;;;;;;;4.95;3.45;;;;;;;23.70;66.23;99685.31;10179540;28;96599;-82
2023/06/19 16:59:14;;;;;;;7.25;4.28;;;;;;;23.80;65.38;99687.94;10217612;28;97087;-82
2023/06/19 17:04:17;;;;;;;5.63;4.07;;;;;;;23.92;65.75;99697.41;10217656;28;97031;-82
2023/06/19 17:09:21;;;;;;;7.07;4.27;;;;;;;23.96;65.40;99703.31;10217260;28;96832;-82
2023/06/19 17:14:26;;;;;;;6.28;3.92;;;;;;;23.81;65.92;99705.72;10216317;28;96811;-82
2023/06/19 17:19:29;;;;;;;5.13;4.05;;;;;;;23.83;65.90;99710.94;10217464;28;96791;-82
2023/06/19 17:24:32;;;;;;;6.50;4.07;;;;;;;23.69;65.93;99717.72;10217778;28;96754;-81
2023/06/19 17:29:40;;;;;;;5.10;3.53;;;;;;;23.58;65.69;99728.72;10216044;28;96725;-82
2023/06/19 17:34:45;;;;;;;6.40;3.95;;;;;;;23.32;67.63;99733.19;10217116;28;96545;-82
2023/06/19 17:39:49;;;;;;;;;;;;;;;23.22;69.09;99737.75;10217217;28;96737;-81
2023/06/19 17:44:56;;;;;;;13.40;9.10;;;;;;;23.15;68.53;99737.53;10220601;28;96785;-81
2023/06/19 17:50:02;;;;;;;14.45;7.80;;;;;;;23.16;68.72;99725.81;10223389;28;96833;-81
2023/06/19 17:55:08;;;;;;;8.48;5.18;;;;;;;23.28;68.52;99729.09;10223515;28;96727;-81
2023/06/19 18:00:16;;;;;;;12.23;8.52;;;;;;;23.52;68.97;99730.16;10223286;28;96694;-82
2023/06/19 18:05:21;;;;;;;15.38;10.05;;;;;;;23.57;69.66;99719.81;10221724;28;96772;-82
2023/06/19 18:10:25;;;;;;;13.68;9.15;;;;;;;23.83;69.05;99719.84;10221572;28;96782;-82
2023/06/19 18:15:33;;;;;;;7.07;4.53;;;;;;;23.63;70.00;99731.81;10223464;28;96640;-82
2023/06/19 18:20:40;;;;;;;6.32;4.25;;;;;;;23.71;70.40;99731.84;10221622;28;96616;-82
2023/06/19 18:25:45;;;;;;;9.45;5.55;;;;;;;23.79;69.95;99737.28;10222658;28;96643;-82
2023/06/19 18:30:52;;;;;;;5.75;4.60;;;;;;;23.50;71.01;99742.03;10222513;28;96667;-82
2023/06/19 18:36:00;;;;;;;5.50;3.80;;;;;;;23.25;71.81;99751.72;10220889;28;96596;-83
2023/06/19 18:41:04;;;;;;;4.72;3.25;;;;;;;23.33;71.77;99757.19;10221948;28;97497;-83
2023/06/19 18:46:12;;;;;;;6.90;4.57;;;;;;;23.18;72.74;99752.50;10222438;28;96890;-82
2023/06/19 18:51:16;;;;;;;7.00;4.28;;;;;;;23.13;72.61;99755.63;10221951;28;96610;-83
2023/06/19 18:56:20;;;;;;;5.20;3.97;;;;;;;22.91;73.29;99768.63;10220812;28;96696;-82
2023/06/19 19:01:25;;;;;;;4.93;3.20;;;;;;;22.96;73.06;99769.00;10221170;28;96783;-82
2023/06/19 19:06:29;;;;;;;5.45;3.95;;;;;;;23.00;72.96;99773.09;10220940;28;96795;-82
2023/06/19 19:11:34;;;;;;;;;;;;;;;23.19;72.93;99772.97;10220875;28;96798;-82
2023/06/19 19:16:39;;;;;;;6.57;3.83;;;;;;;22.97;72.15;99768.03;10221106;28;96814;-82
2023/06/19 19:21:43;;;;;;;4.70;3.72;;;;;;;22.88;73.07;99771.63;10220996;28;97250;-82
2023/06/19 19:26:46;;;;;;;7.67;3.80;;;;;;;22.84;73.07;99789.00;10219396;28;96854;-82
2023/06/19 19:31:51;;;;;;;5.77;3.37;;;;;;;22.74;73.71;99797.06;10220214;28;96886;-82
2023/06/19 19:36:56;;;;;;;6.28;4.00;;;;;;;22.73;73.89;99778.44;10220223;28;97172;-82
2023/06/19 19:41:59;;;;;;;6.38;4.03;;;;;;;22.90;73.26;99781.22;10220191;28;96735;-82
2023/06/19 19:47:06;;;;;;;5.05;3.78;;;;;;;22.52;74.91;99794.78;10190657;28;96664;-81
2023/06/19 19:52:10;;;;;;;5.57;3.83;;;;;;;22.19;76.87;99797.97;10179980;28;96735;-81
2023/06/19 19:57:14;;;;;;;7.38;4.25;;;;;;;22.07;76.84;99801.81;10206185;28;96845;-81
2023/06/19 20:02:19;;;;;;;8.37;4.53;;;;;;;22.10;76.27;99807.75;10218506;28;96744;-82
2023/06/19 20:07:22;;;;;;;8.05;4.20;;;;;;;22.09;75.84;99814.06;10218308;28;96886;-82
2023/06/19 20:12:25;;;;;;;5.93;4.17;;;;;;;22.09;75.85;99816.75;10219329;28;96815;-81
2023/06/19 20:17:34;;;;;;;7.03;4.50;;;;;;;21.92;77.19;99824.63;10218314;28;97249;-82
2023/06/19 20:22:39;;;;;;;6.57;3.85;;;;;;;21.88;76.87;99823.25;10219146;28;96967;-82
2023/06/19 20:27:43;;;;;;;7.53;4.50;;;;;;;21.72;77.99;99823.81;10218969;28;96647;-82
2023/06/19 20:33:08;;;;;;;7.93;4.78;;;;;;;21.66;77.84;99821.69;10218251;28;96692;-82
2023/06/19 20:38:12;;;;;;;8.75;4.57;;;;;;;21.64;78.07;99828.19;10217441;28;96684;-82
2023/06/19 20:43:15;;;;;;;7.88;4.53;;;;;;;21.59;78.18;99836.63;10218585;28;96652;-82
2023/06/19 20:48:20;;;;;;;8.03;4.20;;;;;;;21.71;77.77;99853.44;10218331;28;96749;-82
2023/06/19 20:53:25;;;;;;;4.90;3.67;;;;;;;21.86;76.64;99844.81;10217343;28;96611;-82
2023/06/19 20:58:33;;;;;;;5.07;3.47;;;;;;;21.95;76.62;99840.44;10218213;28;96653;-82
2023/06/19 21:03:38;;;;;;;6.22;3.58;;;;;;;22.07;76.02;99845.53;10217683;28;96712;-82
2023/06/19 21:08:42;;;;;;;7.18;4.45;;;;;;;21.97;76.28;99850.03;10214841;28;96838;-82
2023/06/19 21:13:45;;;;;;;5.88;3.85;;;;;;;21.97;76.14;99855.38;10177624;28;96794;-82
2023/06/19 21:18:50;;;;;;;5.00;3.45;;;;;;;22.01;76.58;99856.81;10180213;28;97416;-82
2023/06/19 21:23:53;;;;;;;5.40;3.72;;;;;;;21.94;76.78;99868.22;10184554;28;96720;-82
2023/06/19 21:28:57;;;;;;;6.37;3.90;;;;;;;21.81;77.14;99870.34;10184546;28;97041;-82
2023/06/19 21:34:02;;;;;;;5.85;3.92;;;;;;;21.79;77.23;99878.53;10184453;28;96552;-81
2023/06/19 21:39:05;;;;;;;5.80;3.95;;;;;;;21.85;77.22;99880.63;10181680;28;96759;-82
2023/06/19 21:44:09;;;;;;;5.97;3.50;;;;;;;21.84;77.19;99886.13;10183467;28;96686;-82
2023/06/19 21:49:14;;;;;;;4.83;3.07;;;;;;;21.90;76.94;99874.88;10181802;28;96639;-82
2023/06/19 21:54:18;;;;;;;5.18;3.45;;;;;;;21.79;77.10;99886.56;10184584;28;97074;-82
2023/06/19 21:59:21;;;;;;;5.60;3.37;;;;;;;21.84;77.05;99888.81;10220496;28;97211;-82
2023/06/19 22:04:27;;;;;;;4.73;2.90;;;;;;;21.90;76.97;99885.56;10221051;28;96827;-82
2023/06/19 22:09:30;;;;;;;5.32;3.53;;;;;;;22.00;76.64;99881.09;10220745;28;96828;-82
2023/06/19 22:14:40;;;;;;;5.32;3.33;;;;;;;21.86;76.70;99884.16;10221236;28;96716;-82
2023/06/19 22:19:47;;;;;;;5.68;3.45;;;;;;;21.94;76.46;99879.78;10220251;28;96691;-82
2023/06/19 22:24:52;;;;;;;5.32;2.95;;;;;;;21.92;76.56;99881.75;10221396;28;96951;-82
2023/06/19 22:29:55;;;;;;;;;;;;;;;21.73;77.67;99886.28;10220440;28;96720;-82
2023/06/19 22:34:59;;;;;;;6.60;3.35;;;;;;;21.63;77.36;99880.03;10208845;28;97141;-82
2023/06/19 22:40:05;;;;;;;4.43;3.00;;;;;;;21.59;77.52;99879.47;10180161;28;97498;-82
2023/06/19 22:45:10;;;;;;;3.75;2.72;;;;;;;21.63;77.43;99880.03;10180729;28;96887;-82
2023/06/19 22:50:15;;;;;;;4.68;2.90;;;;;;;21.63;77.53;99883.56;10179242;28;96801;-82
2023/06/19 22:55:20;;;;;;;4.90;2.92;;;;;;;21.49;77.74;99882.16;10192112;28;97037;-82
2023/06/19 23:00:23;;;;;;;;;;;;;;;21.52;77.68;99878.34;10220191;28;96676;-82
2023/06/19 23:05:28;;;;;;;3.67;2.50;;;;;;;21.45;77.45;99869.16;10219301;28;96693;-81
2023/06/19 23:10:31;;;;;;;4.35;2.90;;;;;;;21.54;77.19;99865.66;10218724;28;97277;-82
2023/06/19 23:15:35;;;;;;;4.22;2.85;;;;;;;21.52;77.12;99860.44;10219483;28;96775;-82
2023/06/19 23:20:40;;;;;;;3.58;3.00;;;;;;;21.41;77.59;99868.59;10218911;28;96622;-82
2023/06/19 23:25:43;;;;;;;4.95;3.15;;;;;;;21.42;77.79;99867.63;10218929;28;97051;-82
2023/06/19 23:30:50;;;;;;;3.80;2.83;;;;;;;21.39;77.76;99859.88;10219044;28;97413;-82
2023/06/19 23:35:56;;;;;;;4.10;2.55;;;;;;;21.47;77.69;99857.34;10218541;28;96749;-82
2023/06/19 23:40:59;;;;;;;4.05;2.88;;;;;;;21.46;77.84;99858.34;10216733;28;97073;-82
2023/06/19 23:46:03;;;;;;;4.05;2.78;;;;;;;21.41;77.60;99857.88;10217547;28;96606;-82
2023/06/19 23:51:08;;;;;;;3.10;2.40;;;;;;;21.37;77.73;99855.63;10218320;28;96630;-82
2023/06/19 23:56:12;;;;;;;4.18;2.28;;;;;;;21.27;77.96;99852.97;10217926;28;96603;-82
